sensor_id;sensor_type;location;lat;lon;timestamp;P1;durP1;ratioP1;P2;durP2;ratioP2
17866;SDS011;9059;49.934;8.650;2022-08-19T00:00:19;13.00;;;8.13;;
17866;SDS011;9059;49.934;8.650;2022-08-19T00:01:20;15.35;;;9.05;;
17866;SDS011;9059;49.934;8.650;2022-08-19T00:02:22;15.98;;;7.38;;
17866;SDS011;9059;49.934;8.650;2022-08-19T00:03:23;13.32;;;7.97;;
17866;SDS011;9059;49.934;8.650;2022-08-19T00:04:25;13.75;;;8.20;;
17866;SDS011;9059;49.934;8.650;2022-08-19T00:05:27;14.63;;;8.15;;
17866;SDS011;9059;49.934;8.650;2022-08-19T00:06:30;14.07;;;8.07;;
17866;SDS011;9059;49.934;8.650;2022-08-19T00:07:31;25.85;;;8.52;;
17866;SDS011;9059;49.934;8.650;2022-08-19T00:08:33;16.48;;;8.50;;
17866;SDS011;9059;49.934;8.650;2022-08-19T00:09:34;13.50;;;8.18;;
17866;SDS011;9059;49.934;8.650;2022-08-19T00:10:36;12.75;;;7.95;;
17866;SDS011;9059;49.934;8.650;2022-08-19T00:11:37;13.93;;;7.70;;
17866;SDS011;9059;49.934;8.650;2022-08-19T00:12:39;14.75;;;8.68;;
17866;SDS011;9059;49.934;8.650;2022-08-19T00:13:40;11.90;;;7.75;;
17866;SDS011;9059;49.934;8.650;2022-08-19T00:14:41;11.68;;;7.80;;
17866;SDS011;9059;49.934;8.650;2022-08-19T00:15:42;13.43;;;7.88;;
17866;SDS011;9059;49.934;8.650;2022-08-19T00:16:45;13.65;;;8.13;;
17866;SDS011;9059;49.934;8.650;2022-08-19T00:17:47;15.40;;;8.27;;
17866;SDS011;9059;49.934;8.650;2022-08-19T00:18:49;13.48;;;8.55;;
17866;SDS011;9059;49.934;8.650;2022-08-19T00:19:50;13.77;;;8.25;;
17866;SDS011;9059;49.934;8.650;2022-08-19T00:20:52;13.80;;;8.20;;
17866;SDS011;9059;49.934;8.650;2022-08-19T00:21:54;15.40;;;8.65;;
17866;SDS011;9059;49.934;8.650;2022-08-19T00:22:56;13.70;;;8.05;;
17866;SDS011;9059;49.934;8.650;2022-08-19T00:23:57;11.93;;;7.70;;
17866;SDS011;9059;49.934;8.650;2022-08-19T00:25:00;12.52;;;7.82;;
17866;SDS011;9059;49.934;8.650;2022-08-19T00:26:00;11.75;;;7.97;;
17866;SDS011;9059;49.934;8.650;2022-08-19T00:27:02;13.20;;;7.60;;
17866;SDS011;9059;49.934;8.650;2022-08-19T00:28:03;16.60;;;8.35;;
17866;SDS011;9059;49.934;8.650;2022-08-19T00:29:06;16.10;;;7.72;;
17866;SDS011;9059;49.934;8.650;2022-08-19T00:30:08;15.73;;;8.52;;
17866;SDS011;9059;49.934;8.650;2022-08-19T00:31:11;15.10;;;7.95;;
17866;SDS011;9059;49.934;8.650;2022-08-19T00:32:12;13.98;;;8.07;;
17866;SDS011;9059;49.934;8.650;2022-08-19T00:33:13;15.75;;;8.02;;
17866;SDS011;9059;49.934;8.650;2022-08-19T00:34:14;13.30;;;7.75;;
17866;SDS011;9059;49.934;8.650;2022-08-19T00:35:16;10.63;;;7.30;;
17866;SDS011;9059;49.934;8.650;2022-08-19T00:36:18;13.80;;;8.27;;
17866;SDS011;9059;49.934;8.650;2022-08-19T00:37:21;11.40;;;7.43;;
17866;SDS011;9059;49.934;8.650;2022-08-19T00:38:23;11.93;;;7.68;;
17866;SDS011;9059;49.934;8.650;2022-08-19T00:39:25;13.10;;;7.88;;
17866;SDS011;9059;49.934;8.650;2022-08-19T00:40:25;15.32;;;7.20;;
17866;SDS011;9059;49.934;8.650;2022-08-19T00:41:27;10.38;;;7.35;;
17866;SDS011;9059;49.934;8.650;2022-08-19T00:42:28;14.43;;;8.15;;
17866;SDS011;9059;49.934;8.650;2022-08-19T00:43:30;12.38;;;7.63;;
17866;SDS011;9059;49.934;8.650;2022-08-19T00:44:31;14.95;;;7.93;;
17866;SDS011;9059;49.934;8.650;2022-08-19T00:45:32;14.13;;;8.20;;
17866;SDS011;9059;49.934;8.650;2022-08-19T00:46:36;12.60;;;7.88;;
17866;SDS011;9059;49.934;8.650;2022-08-19T00:47:39;13.15;;;8.35;;
17866;SDS011;9059;49.934;8.650;2022-08-19T00:48:40;16.17;;;9.43;;
17866;SDS011;9059;49.934;8.650;2022-08-19T00:49:43;16.83;;;8.40;;
17866;SDS011;9059;49.934;8.650;2022-08-19T00:50:50;13.52;;;8.43;;
17866;SDS011;9059;49.934;8.650;2022-08-19T00:51:57;14.52;;;8.70;;
17866;SDS011;9059;49.934;8.650;2022-08-19T00:53:02;15.55;;;8.65;;
17866;SDS011;9059;49.934;8.650;2022-08-19T00:54:04;16.73;;;8.60;;
17866;SDS011;9059;49.934;8.650;2022-08-19T00:55:05;14.70;;;8.95;;
17866;SDS011;9059;49.934;8.650;2022-08-19T00:56:11;13.70;;;8.07;;
17866;SDS011;9059;49.934;8.650;2022-08-19T00:57:13;12.70;;;8.13;;
17866;SDS011;9059;49.934;8.650;2022-08-19T00:58:17;13.35;;;8.75;;
17866;SDS011;9059;49.934;8.650;2022-08-19T00:59:19;14.80;;;8.38;;
17866;SDS011;9059;49.934;8.650;2022-08-19T01:00:23;16.67;;;9.02;;
17866;SDS011;9059;49.934;8.650;2022-08-19T01:01:25;16.23;;;9.27;;
17866;SDS011;9059;49.934;8.650;2022-08-19T01:02:27;14.88;;;9.10;;
17866;SDS011;9059;49.934;8.650;2022-08-19T01:03:28;15.70;;;9.38;;
17866;SDS011;9059;49.934;8.650;2022-08-19T01:04:29;16.00;;;9.60;;
17866;SDS011;9059;49.934;8.650;2022-08-19T01:05:30;20.88;;;10.32;;
17866;SDS011;9059;49.934;8.650;2022-08-19T01:06:32;20.92;;;9.00;;
17866;SDS011;9059;49.934;8.650;2022-08-19T01:07:34;15.07;;;9.77;;
17866;SDS011;9059;49.934;8.650;2022-08-19T01:08:38;18.27;;;10.07;;
17866;SDS011;9059;49.934;8.650;2022-08-19T01:09:39;27.02;;;9.57;;
17866;SDS011;9059;49.934;8.650;2022-08-19T01:10:42;15.57;;;9.55;;
17866;SDS011;9059;49.934;8.650;2022-08-19T01:11:45;17.77;;;9.52;;
17866;SDS011;9059;49.934;8.650;2022-08-19T01:12:47;18.55;;;9.40;;
17866;SDS011;9059;49.934;8.650;2022-08-19T01:13:48;16.13;;;9.68;;
17866;SDS011;9059;49.934;8.650;2022-08-19T01:14:51;16.42;;;9.10;;
17866;SDS011;9059;49.934;8.650;2022-08-19T01:15:54;17.85;;;9.48;;
17866;SDS011;9059;49.934;8.650;2022-08-19T01:16:57;16.05;;;9.60;;
17866;SDS011;9059;49.934;8.650;2022-08-19T01:18:01;14.93;;;9.30;;
17866;SDS011;9059;49.934;8.650;2022-08-19T01:19:08;21.02;;;9.43;;
17866;SDS011;9059;49.934;8.650;2022-08-19T01:20:13;14.32;;;8.80;;
17866;SDS011;9059;49.934;8.650;2022-08-19T01:21:18;18.40;;;9.43;;
17866;SDS011;9059;49.934;8.650;2022-08-19T01:22:27;16.08;;;9.20;;
17866;SDS011;9059;49.934;8.650;2022-08-19T01:23:29;17.20;;;8.82;;
17866;SDS011;9059;49.934;8.650;2022-08-19T01:24:42;18.15;;;9.35;;
17866;SDS011;9059;49.934;8.650;2022-08-19T01:25:47;15.82;;;9.38;;
17866;SDS011;9059;49.934;8.650;2022-08-19T01:26:50;16.05;;;9.20;;
17866;SDS011;9059;49.934;8.650;2022-08-19T01:27:52;16.55;;;9.45;;
17866;SDS011;9059;49.934;8.650;2022-08-19T01:28:54;18.85;;;9.73;;
17866;SDS011;9059;49.934;8.650;2022-08-19T01:29:56;16.25;;;9.07;;
17866;SDS011;9059;49.934;8.650;2022-08-19T01:30:57;17.35;;;9.50;;
17866;SDS011;9059;49.934;8.650;2022-08-19T01:31:59;14.52;;;9.27;;
17866;SDS011;9059;49.934;8.650;2022-08-19T01:33:02;16.92;;;9.65;;
17866;SDS011;9059;49.934;8.650;2022-08-19T01:34:06;14.70;;;8.82;;
17866;SDS011;9059;49.934;8.650;2022-08-19T01:35:08;14.90;;;8.77;;
17866;SDS011;9059;49.934;8.650;2022-08-19T01:36:11;17.40;;;9.82;;
17866;SDS011;9059;49.934;8.650;2022-08-19T01:37:15;17.13;;;9.27;;
17866;SDS011;9059;49.934;8.650;2022-08-19T01:38:21;15.07;;;8.95;;
17866;SDS011;9059;49.934;8.650;2022-08-19T01:39:24;17.42;;;9.93;;
17866;SDS011;9059;49.934;8.650;2022-08-19T01:40:27;19.38;;;9.70;;
17866;SDS011;9059;49.934;8.650;2022-08-19T01:41:30;17.08;;;9.55;;
17866;SDS011;9059;49.934;8.650;2022-08-19T01:42:31;17.10;;;9.27;;
17866;SDS011;9059;49.934;8.650;2022-08-19T01:43:33;13.10;;;7.90;;
17866;SDS011;9059;49.934;8.650;2022-08-19T01:44:34;23.52;;;9.80;;
17866;SDS011;9059;49.934;8.650;2022-08-19T01:45:37;14.23;;;8.85;;
17866;SDS011;9059;49.934;8.650;2022-08-19T01:46:40;14.90;;;9.40;;
17866;SDS011;9059;49.934;8.650;2022-08-19T01:47:42;18.63;;;9.77;;
17866;SDS011;9059;49.934;8.650;2022-08-19T01:48:43;17.10;;;9.57;;
17866;SDS011;9059;49.934;8.650;2022-08-19T01:49:45;15.32;;;9.23;;
17866;SDS011;9059;49.934;8.650;2022-08-19T01:50:46;15.65;;;9.05;;
17866;SDS011;9059;49.934;8.650;2022-08-19T01:51:51;15.57;;;9.32;;
17866;SDS011;9059;49.934;8.650;2022-08-19T01:52:53;20.15;;;9.75;;
17866;SDS011;9059;49.934;8.650;2022-08-19T01:53:56;15.10;;;8.35;;
17866;SDS011;9059;49.934;8.650;2022-08-19T01:54:57;16.98;;;9.07;;
17866;SDS011;9059;49.934;8.650;2022-08-19T01:56:00;14.85;;;8.63;;
17866;SDS011;9059;49.934;8.650;2022-08-19T01:57:01;13.00;;;8.25;;
17866;SDS011;9059;49.934;8.650;2022-08-19T01:58:05;17.15;;;8.77;;
17866;SDS011;9059;49.934;8.650;2022-08-19T01:59:10;16.90;;;9.02;;
17866;SDS011;9059;49.934;8.650;2022-08-19T02:00:15;16.13;;;8.70;;
17866;SDS011;9059;49.934;8.650;2022-08-19T02:01:17;16.48;;;8.65;;
17866;SDS011;9059;49.934;8.650;2022-08-19T02:02:19;14.25;;;8.25;;
17866;SDS011;9059;49.934;8.650;2022-08-19T02:03:20;16.08;;;8.98;;
17866;SDS011;9059;49.934;8.650;2022-08-19T02:04:22;17.13;;;9.07;;
17866;SDS011;9059;49.934;8.650;2022-08-19T02:05:25;17.02;;;9.00;;
17866;SDS011;9059;49.934;8.650;2022-08-19T02:06:29;14.50;;;9.43;;
17866;SDS011;9059;49.934;8.650;2022-08-19T02:07:30;15.48;;;8.93;;
17866;SDS011;9059;49.934;8.650;2022-08-19T02:08:34;16.08;;;8.65;;
17866;SDS011;9059;49.934;8.650;2022-08-19T02:09:37;18.15;;;9.00;;
17866;SDS011;9059;49.934;8.650;2022-08-19T02:10:40;13.57;;;8.95;;
17866;SDS011;9059;49.934;8.650;2022-08-19T02:11:41;14.48;;;8.68;;
17866;SDS011;9059;49.934;8.650;2022-08-19T02:12:43;15.52;;;8.23;;
17866;SDS011;9059;49.934;8.650;2022-08-19T02:13:44;19.50;;;8.90;;
17866;SDS011;9059;49.934;8.650;2022-08-19T02:14:45;13.27;;;8.52;;
17866;SDS011;9059;49.934;8.650;2022-08-19T02:15:46;15.55;;;8.77;;
17866;SDS011;9059;49.934;8.650;2022-08-19T02:16:48;14.35;;;8.38;;
17866;SDS011;9059;49.934;8.650;2022-08-19T02:17:49;19.77;;;9.25;;
17866;SDS011;9059;49.934;8.650;2022-08-19T02:18:50;14.20;;;8.60;;
17866;SDS011;9059;49.934;8.650;2022-08-19T02:19:51;15.77;;;9.23;;
17866;SDS011;9059;49.934;8.650;2022-08-19T02:20:53;15.43;;;8.73;;
17866;SDS011;9059;49.934;8.650;2022-08-19T02:21:54;17.42;;;8.73;;
17866;SDS011;9059;49.934;8.650;2022-08-19T02:22:55;15.13;;;8.60;;
17866;SDS011;9059;49.934;8.650;2022-08-19T02:23:59;14.20;;;8.98;;
17866;SDS011;9059;49.934;8.650;2022-08-19T02:25:03;16.40;;;9.13;;
17866;SDS011;9059;49.934;8.650;2022-08-19T02:26:05;13.73;;;8.40;;
17866;SDS011;9059;49.934;8.650;2022-08-19T02:27:08;15.52;;;9.63;;
17866;SDS011;9059;49.934;8.650;2022-08-19T02:28:09;13.40;;;8.90;;
17866;SDS011;9059;49.934;8.650;2022-08-19T02:29:11;15.38;;;8.38;;
17866;SDS011;9059;49.934;8.650;2022-08-19T02:30:13;15.73;;;8.73;;
17866;SDS011;9059;49.934;8.650;2022-08-19T02:31:17;16.38;;;9.15;;
17866;SDS011;9059;49.934;8.650;2022-08-19T02:32:19;20.80;;;8.65;;
17866;SDS011;9059;49.934;8.650;2022-08-19T02:33:21;13.40;;;8.65;;
17866;SDS011;9059;49.934;8.650;2022-08-19T02:34:22;17.75;;;9.40;;
17866;SDS011;9059;49.934;8.650;2022-08-19T02:35:25;16.65;;;9.88;;
17866;SDS011;9059;49.934;8.650;2022-08-19T02:36:26;17.65;;;9.95;;
17866;SDS011;9059;49.934;8.650;2022-08-19T02:37:27;15.52;;;9.00;;
17866;SDS011;9059;49.934;8.650;2022-08-19T02:38:47;15.32;;;8.70;;
17866;SDS011;9059;49.934;8.650;2022-08-19T02:39:48;14.23;;;9.10;;
17866;SDS011;9059;49.934;8.650;2022-08-19T02:40:51;15.07;;;8.85;;
17866;SDS011;9059;49.934;8.650;2022-08-19T02:41:54;18.95;;;9.35;;
17866;SDS011;9059;49.934;8.650;2022-08-19T02:42:54;16.50;;;8.90;;
17866;SDS011;9059;49.934;8.650;2022-08-19T02:43:57;17.00;;;9.60;;
17866;SDS011;9059;49.934;8.650;2022-08-19T02:44:59;16.02;;;9.43;;
17866;SDS011;9059;49.934;8.650;2022-08-19T02:46:01;15.55;;;8.68;;
17866;SDS011;9059;49.934;8.650;2022-08-19T02:47:02;15.88;;;9.05;;
17866;SDS011;9059;49.934;8.650;2022-08-19T02:48:05;16.48;;;8.85;;
17866;SDS011;9059;49.934;8.650;2022-08-19T02:49:06;15.52;;;8.88;;
17866;SDS011;9059;49.934;8.650;2022-08-19T02:50:08;14.35;;;8.73;;
17866;SDS011;9059;49.934;8.650;2022-08-19T02:51:15;18.88;;;8.38;;
17866;SDS011;9059;49.934;8.650;2022-08-19T02:52:17;16.25;;;9.30;;
17866;SDS011;9059;49.934;8.650;2022-08-19T02:53:18;16.90;;;8.43;;
17866;SDS011;9059;49.934;8.650;2022-08-19T02:54:22;16.67;;;9.40;;
17866;SDS011;9059;49.934;8.650;2022-08-19T02:55:23;17.02;;;9.32;;
17866;SDS011;9059;49.934;8.650;2022-08-19T02:56:26;14.77;;;9.23;;
17866;SDS011;9059;49.934;8.650;2022-08-19T02:57:29;18.25;;;9.75;;
17866;SDS011;9059;49.934;8.650;2022-08-19T02:58:31;15.70;;;9.38;;
17866;SDS011;9059;49.934;8.650;2022-08-19T02:59:33;16.92;;;9.48;;
17866;SDS011;9059;49.934;8.650;2022-08-19T03:00:34;15.75;;;8.77;;
17866;SDS011;9059;49.934;8.650;2022-08-19T03:01:36;14.48;;;8.48;;
17866;SDS011;9059;49.934;8.650;2022-08-19T03:02:39;18.00;;;9.57;;
17866;SDS011;9059;49.934;8.650;2022-08-19T03:03:40;14.38;;;8.80;;
17866;SDS011;9059;49.934;8.650;2022-08-19T03:04:42;15.50;;;9.05;;
17866;SDS011;9059;49.934;8.650;2022-08-19T03:05:43;14.18;;;8.48;;
17866;SDS011;9059;49.934;8.650;2022-08-19T03:06:45;14.32;;;8.73;;
17866;SDS011;9059;49.934;8.650;2022-08-19T03:07:46;15.77;;;9.00;;
17866;SDS011;9059;49.934;8.650;2022-08-19T03:08:48;15.10;;;8.98;;
17866;SDS011;9059;49.934;8.650;2022-08-19T03:09:49;16.95;;;9.27;;
17866;SDS011;9059;49.934;8.650;2022-08-19T03:10:51;15.55;;;8.65;;
17866;SDS011;9059;49.934;8.650;2022-08-19T03:11:54;18.65;;;8.73;;
17866;SDS011;9059;49.934;8.650;2022-08-19T03:12:56;13.93;;;8.40;;
17866;SDS011;9059;49.934;8.650;2022-08-19T03:13:57;15.38;;;8.40;;
17866;SDS011;9059;49.934;8.650;2022-08-19T03:15:00;15.32;;;8.93;;
17866;SDS011;9059;49.934;8.650;2022-08-19T03:16:04;14.88;;;8.02;;
17866;SDS011;9059;49.934;8.650;2022-08-19T03:17:06;13.23;;;8.60;;
17866;SDS011;9059;49.934;8.650;2022-08-19T03:18:08;14.93;;;8.40;;
17866;SDS011;9059;49.934;8.650;2022-08-19T03:19:11;16.58;;;8.82;;
17866;SDS011;9059;49.934;8.650;2022-08-19T03:20:12;14.93;;;7.88;;
17866;SDS011;9059;49.934;8.650;2022-08-19T03:21:14;15.57;;;8.85;;
17866;SDS011;9059;49.934;8.650;2022-08-19T03:22:16;18.25;;;9.35;;
17866;SDS011;9059;49.934;8.650;2022-08-19T03:23:18;14.27;;;8.43;;
17866;SDS011;9059;49.934;8.650;2022-08-19T03:24:19;14.13;;;8.82;;
17866;SDS011;9059;49.934;8.650;2022-08-19T03:25:21;15.63;;;8.52;;
17866;SDS011;9059;49.934;8.650;2022-08-19T03:26:22;14.82;;;8.65;;
17866;SDS011;9059;49.934;8.650;2022-08-19T03:27:25;17.23;;;8.60;;
17866;SDS011;9059;49.934;8.650;2022-08-19T03:28:26;14.45;;;7.75;;
17866;SDS011;9059;49.934;8.650;2022-08-19T03:29:28;15.60;;;8.25;;
17866;SDS011;9059;49.934;8.650;2022-08-19T03:30:31;17.48;;;8.38;;
17866;SDS011;9059;49.934;8.650;2022-08-19T03:31:32;13.25;;;8.30;;
17866;SDS011;9059;49.934;8.650;2022-08-19T03:32:34;16.75;;;8.25;;
17866;SDS011;9059;49.934;8.650;2022-08-19T03:33:35;16.23;;;7.88;;
17866;SDS011;9059;49.934;8.650;2022-08-19T03:34:37;15.18;;;8.93;;
17866;SDS011;9059;49.934;8.650;2022-08-19T03:35:38;12.70;;;8.02;;
17866;SDS011;9059;49.934;8.650;2022-08-19T03:36:40;17.58;;;8.63;;
17866;SDS011;9059;49.934;8.650;2022-08-19T03:37:42;14.95;;;8.40;;
17866;SDS011;9059;49.934;8.650;2022-08-19T03:38:43;15.00;;;8.07;;
17866;SDS011;9059;49.934;8.650;2022-08-19T03:39:46;16.65;;;8.27;;
17866;SDS011;9059;49.934;8.650;2022-08-19T03:40:46;17.50;;;7.55;;
17866;SDS011;9059;49.934;8.650;2022-08-19T03:41:48;14.35;;;8.02;;
17866;SDS011;9059;49.934;8.650;2022-08-19T03:42:51;13.23;;;7.82;;
17866;SDS011;9059;49.934;8.650;2022-08-19T03:43:53;18.52;;;8.68;;
17866;SDS011;9059;49.934;8.650;2022-08-19T03:44:54;12.95;;;7.70;;
17866;SDS011;9059;49.934;8.650;2022-08-19T03:46:00;13.73;;;7.80;;
17866;SDS011;9059;49.934;8.650;2022-08-19T03:47:02;19.35;;;8.25;;
17866;SDS011;9059;49.934;8.650;2022-08-19T03:48:05;19.00;;;9.15;;
17866;SDS011;9059;49.934;8.650;2022-08-19T03:49:06;14.80;;;8.85;;
17866;SDS011;9059;49.934;8.650;2022-08-19T03:50:08;13.85;;;8.40;;
17866;SDS011;9059;49.934;8.650;2022-08-19T03:51:14;15.52;;;7.90;;
17866;SDS011;9059;49.934;8.650;2022-08-19T03:52:17;13.70;;;7.90;;
17866;SDS011;9059;49.934;8.650;2022-08-19T03:53:17;14.95;;;8.50;;
17866;SDS011;9059;49.934;8.650;2022-08-19T03:54:21;16.67;;;8.02;;
17866;SDS011;9059;49.934;8.650;2022-08-19T03:55:23;15.57;;;8.68;;
17866;SDS011;9059;49.934;8.650;2022-08-19T03:56:25;15.80;;;8.10;;
17866;SDS011;9059;49.934;8.650;2022-08-19T03:57:27;14.57;;;8.15;;
17866;SDS011;9059;49.934;8.650;2022-08-19T03:58:30;14.30;;;7.97;;
17866;SDS011;9059;49.934;8.650;2022-08-19T03:59:32;16.48;;;8.65;;
17866;SDS011;9059;49.934;8.650;2022-08-19T04:00:35;14.77;;;8.35;;
17866;SDS011;9059;49.934;8.650;2022-08-19T04:01:36;14.20;;;8.43;;
17866;SDS011;9059;49.934;8.650;2022-08-19T04:02:38;12.65;;;7.63;;
17866;SDS011;9059;49.934;8.650;2022-08-19T04:03:40;13.63;;;8.02;;
17866;SDS011;9059;49.934;8.650;2022-08-19T04:04:41;13.77;;;8.13;;
17866;SDS011;9059;49.934;8.650;2022-08-19T04:05:44;17.73;;;9.20;;
17866;SDS011;9059;49.934;8.650;2022-08-19T04:06:46;15.55;;;8.32;;
17866;SDS011;9059;49.934;8.650;2022-08-19T04:07:48;14.23;;;8.20;;
17866;SDS011;9059;49.934;8.650;2022-08-19T04:08:49;14.82;;;8.25;;
17866;SDS011;9059;49.934;8.650;2022-08-19T04:09:53;14.60;;;8.07;;
17866;SDS011;9059;49.934;8.650;2022-08-19T04:10:54;15.80;;;8.25;;
17866;SDS011;9059;49.934;8.650;2022-08-19T04:11:57;11.57;;;7.45;;
17866;SDS011;9059;49.934;8.650;2022-08-19T04:12:57;13.05;;;7.93;;
17866;SDS011;9059;49.934;8.650;2022-08-19T04:14:01;14.40;;;7.88;;
17866;SDS011;9059;49.934;8.650;2022-08-19T04:15:02;15.60;;;8.23;;
17866;SDS011;9059;49.934;8.650;2022-08-19T04:16:05;15.27;;;7.50;;
17866;SDS011;9059;49.934;8.650;2022-08-19T04:17:06;13.15;;;7.38;;
17866;SDS011;9059;49.934;8.650;2022-08-19T04:18:08;15.18;;;7.60;;
17866;SDS011;9059;49.934;8.650;2022-08-19T04:19:09;13.10;;;7.70;;
17866;SDS011;9059;49.934;8.650;2022-08-19T04:20:12;15.13;;;8.52;;
17866;SDS011;9059;49.934;8.650;2022-08-19T04:21:16;12.00;;;7.10;;
17866;SDS011;9059;49.934;8.650;2022-08-19T04:22:18;16.42;;;7.72;;
17866;SDS011;9059;49.934;8.650;2022-08-19T04:23:20;12.38;;;7.88;;
17866;SDS011;9059;49.934;8.650;2022-08-19T04:24:21;12.73;;;7.60;;
17866;SDS011;9059;49.934;8.650;2022-08-19T04:25:24;16.58;;;8.48;;
17866;SDS011;9059;49.934;8.650;2022-08-19T04:26:25;18.02;;;8.25;;
17866;SDS011;9059;49.934;8.650;2022-08-19T04:27:28;15.48;;;8.07;;
17866;SDS011;9059;49.934;8.650;2022-08-19T04:28:29;16.17;;;8.52;;
17866;SDS011;9059;49.934;8.650;2022-08-19T04:29:32;16.02;;;8.75;;
17866;SDS011;9059;49.934;8.650;2022-08-19T04:30:37;13.85;;;8.15;;
17866;SDS011;9059;49.934;8.650;2022-08-19T04:31:40;18.60;;;8.55;;
17866;SDS011;9059;49.934;8.650;2022-08-19T04:32:41;13.95;;;7.85;;
17866;SDS011;9059;49.934;8.650;2022-08-19T04:33:44;16.80;;;9.02;;
17866;SDS011;9059;49.934;8.650;2022-08-19T04:34:45;16.27;;;8.93;;
17866;SDS011;9059;49.934;8.650;2022-08-19T04:35:47;15.82;;;8.75;;
17866;SDS011;9059;49.934;8.650;2022-08-19T04:36:49;13.65;;;8.15;;
17866;SDS011;9059;49.934;8.650;2022-08-19T04:37:52;14.98;;;8.40;;
17866;SDS011;9059;49.934;8.650;2022-08-19T04:38:53;15.43;;;9.00;;
17866;SDS011;9059;49.934;8.650;2022-08-19T04:39:56;14.27;;;7.80;;
17866;SDS011;9059;49.934;8.650;2022-08-19T04:41:26;15.77;;;7.82;;
17866;SDS011;9059;49.934;8.650;2022-08-19T04:42:46;12.98;;;8.15;;
17866;SDS011;9059;49.934;8.650;2022-08-19T04:43:49;15.77;;;8.02;;
17866;SDS011;9059;49.934;8.650;2022-08-19T04:44:52;19.13;;;8.75;;
17866;SDS011;9059;49.934;8.650;2022-08-19T04:45:53;15.00;;;8.10;;
17866;SDS011;9059;49.934;8.650;2022-08-19T04:46:55;17.02;;;8.73;;
17866;SDS011;9059;49.934;8.650;2022-08-19T04:47:56;18.80;;;8.73;;
17866;SDS011;9059;49.934;8.650;2022-08-19T04:48:58;14.15;;;8.77;;
17866;SDS011;9059;49.934;8.650;2022-08-19T04:50:00;18.55;;;9.48;;
17866;SDS011;9059;49.934;8.650;2022-08-19T04:51:05;14.45;;;8.43;;
17866;SDS011;9059;49.934;8.650;2022-08-19T04:52:07;14.70;;;8.23;;
17866;SDS011;9059;49.934;8.650;2022-08-19T04:53:09;20.17;;;8.88;;
17866;SDS011;9059;49.934;8.650;2022-08-19T04:54:10;15.80;;;8.75;;
17866;SDS011;9059;49.934;8.650;2022-08-19T04:55:13;16.00;;;9.13;;
17866;SDS011;9059;49.934;8.650;2022-08-19T04:56:18;14.02;;;8.57;;
17866;SDS011;9059;49.934;8.650;2022-08-19T04:57:21;15.55;;;8.27;;
17866;SDS011;9059;49.934;8.650;2022-08-19T04:58:23;16.60;;;8.88;;
17866;SDS011;9059;49.934;8.650;2022-08-19T04:59:25;14.18;;;8.15;;
17866;SDS011;9059;49.934;8.650;2022-08-19T05:00:27;14.68;;;7.80;;
17866;SDS011;9059;49.934;8.650;2022-08-19T05:01:29;15.32;;;7.95;;
17866;SDS011;9059;49.934;8.650;2022-08-19T05:02:32;15.00;;;8.30;;
17866;SDS011;9059;49.934;8.650;2022-08-19T05:03:34;13.07;;;8.23;;
17866;SDS011;9059;49.934;8.650;2022-08-19T05:04:34;14.70;;;8.13;;
17866;SDS011;9059;49.934;8.650;2022-08-19T05:05:39;12.93;;;8.02;;
17866;SDS011;9059;49.934;8.650;2022-08-19T05:06:41;16.45;;;7.90;;
17866;SDS011;9059;49.934;8.650;2022-08-19T05:07:43;16.77;;;8.63;;
17866;SDS011;9059;49.934;8.650;2022-08-19T05:08:44;23.45;;;8.43;;
17866;SDS011;9059;49.934;8.650;2022-08-19T05:09:46;13.57;;;7.95;;
17866;SDS011;9059;49.934;8.650;2022-08-19T05:10:47;15.48;;;8.25;;
17866;SDS011;9059;49.934;8.650;2022-08-19T05:11:49;14.80;;;8.27;;
17866;SDS011;9059;49.934;8.650;2022-08-19T05:12:52;15.88;;;8.68;;
17866;SDS011;9059;49.934;8.650;2022-08-19T05:13:55;12.38;;;7.75;;
17866;SDS011;9059;49.934;8.650;2022-08-19T05:14:56;16.27;;;7.78;;
17866;SDS011;9059;49.934;8.650;2022-08-19T05:16:00;13.95;;;8.10;;
17866;SDS011;9059;49.934;8.650;2022-08-19T05:17:00;14.18;;;8.40;;
17866;SDS011;9059;49.934;8.650;2022-08-19T05:18:02;12.43;;;7.72;;
17866;SDS011;9059;49.934;8.650;2022-08-19T05:19:21;14.27;;;8.13;;
17866;SDS011;9059;49.934;8.650;2022-08-19T05:20:41;19.80;;;7.97;;
17866;SDS011;9059;49.934;8.650;2022-08-19T05:22:00;20.23;;;8.10;;
17866;SDS011;9059;49.934;8.650;2022-08-19T05:23:16;14.70;;;7.90;;
17866;SDS011;9059;49.934;8.650;2022-08-19T05:24:18;13.80;;;8.15;;
17866;SDS011;9059;49.934;8.650;2022-08-19T05:25:20;13.77;;;8.27;;
17866;SDS011;9059;49.934;8.650;2022-08-19T05:26:22;20.02;;;8.65;;
17866;SDS011;9059;49.934;8.650;2022-08-19T05:27:23;15.55;;;8.93;;
17866;SDS011;9059;49.934;8.650;2022-08-19T05:28:25;14.48;;;7.90;;
17866;SDS011;9059;49.934;8.650;2022-08-19T05:29:26;14.77;;;8.13;;
17866;SDS011;9059;49.934;8.650;2022-08-19T05:30:28;16.52;;;7.72;;
17866;SDS011;9059;49.934;8.650;2022-08-19T05:31:31;14.23;;;7.85;;
17866;SDS011;9059;49.934;8.650;2022-08-19T05:32:32;15.70;;;7.95;;
17866;SDS011;9059;49.934;8.650;2022-08-19T05:33:34;13.95;;;7.88;;
17866;SDS011;9059;49.934;8.650;2022-08-19T05:34:35;18.13;;;8.32;;
17866;SDS011;9059;49.934;8.650;2022-08-19T05:35:38;14.38;;;8.80;;
17866;SDS011;9059;49.934;8.650;2022-08-19T05:36:41;14.90;;;8.65;;
17866;SDS011;9059;49.934;8.650;2022-08-19T05:37:43;15.98;;;8.68;;
17866;SDS011;9059;49.934;8.650;2022-08-19T05:38:45;14.70;;;8.40;;
17866;SDS011;9059;49.934;8.650;2022-08-19T05:39:47;14.63;;;8.18;;
17866;SDS011;9059;49.934;8.650;2022-08-19T05:40:49;16.02;;;8.23;;
17866;SDS011;9059;49.934;8.650;2022-08-19T05:41:50;15.73;;;8.35;;
17866;SDS011;9059;49.934;8.650;2022-08-19T05:42:57;14.48;;;8.73;;
17866;SDS011;9059;49.934;8.650;2022-08-19T05:44:00;15.27;;;8.60;;
17866;SDS011;9059;49.934;8.650;2022-08-19T05:45:03;17.02;;;8.65;;
17866;SDS011;9059;49.934;8.650;2022-08-19T05:46:05;14.02;;;8.43;;
17866;SDS011;9059;49.934;8.650;2022-08-19T05:47:08;15.35;;;8.27;;
17866;SDS011;9059;49.934;8.650;2022-08-19T05:48:10;14.00;;;8.40;;
17866;SDS011;9059;49.934;8.650;2022-08-19T05:49:11;13.20;;;8.00;;
17866;SDS011;9059;49.934;8.650;2022-08-19T05:50:12;16.33;;;7.97;;
17866;SDS011;9059;49.934;8.650;2022-08-19T05:51:14;12.40;;;8.27;;
17866;SDS011;9059;49.934;8.650;2022-08-19T05:52:16;17.17;;;7.63;;
17866;SDS011;9059;49.934;8.650;2022-08-19T05:53:18;16.58;;;8.32;;
17866;SDS011;9059;49.934;8.650;2022-08-19T05:54:19;15.55;;;8.70;;
17866;SDS011;9059;49.934;8.650;2022-08-19T05:55:21;15.02;;;8.15;;
17866;SDS011;9059;49.934;8.650;2022-08-19T05:56:22;14.02;;;8.68;;
17866;SDS011;9059;49.934;8.650;2022-08-19T05:57:24;14.20;;;8.05;;
17866;SDS011;9059;49.934;8.650;2022-08-19T05:58:28;12.93;;;8.38;;
17866;SDS011;9059;49.934;8.650;2022-08-19T05:59:29;14.50;;;8.10;;
17866;SDS011;9059;49.934;8.650;2022-08-19T06:00:31;16.88;;;7.68;;
17866;SDS011;9059;49.934;8.650;2022-08-19T06:01:35;13.57;;;7.20;;
17866;SDS011;9059;49.934;8.650;2022-08-19T06:02:39;13.07;;;7.47;;
17866;SDS011;9059;49.934;8.650;2022-08-19T06:03:40;13.75;;;7.97;;
17866;SDS011;9059;49.934;8.650;2022-08-19T06:04:42;13.30;;;8.13;;
17866;SDS011;9059;49.934;8.650;2022-08-19T06:05:43;13.43;;;7.88;;
17866;SDS011;9059;49.934;8.650;2022-08-19T06:06:46;11.70;;;7.13;;
17866;SDS011;9059;49.934;8.650;2022-08-19T06:07:47;12.43;;;7.70;;
17866;SDS011;9059;49.934;8.650;2022-08-19T06:08:49;16.23;;;8.02;;
17866;SDS011;9059;49.934;8.650;2022-08-19T06:09:50;16.10;;;7.85;;
17866;SDS011;9059;49.934;8.650;2022-08-19T06:10:52;16.00;;;7.85;;
17866;SDS011;9059;49.934;8.650;2022-08-19T06:11:54;17.73;;;8.00;;
17866;SDS011;9059;49.934;8.650;2022-08-19T06:12:59;10.82;;;7.53;;
17866;SDS011;9059;49.934;8.650;2022-08-19T06:14:01;19.33;;;7.82;;
17866;SDS011;9059;49.934;8.650;2022-08-19T06:15:05;13.77;;;7.70;;
17866;SDS011;9059;49.934;8.650;2022-08-19T06:16:08;16.55;;;7.25;;
17866;SDS011;9059;49.934;8.650;2022-08-19T06:17:09;15.07;;;7.75;;